Portada
METAR-TAF:

METAR-TAF

Aeropuertos :

Aeropuerto Internacional Diori Hamani

Niamey, Níger

latitud: 13-29N, longitud: 002-10E, altitud: 223 m

Observación

El informe se hizo hace 35 minutos, a las 20:00 UTC
Viento 1 kt con dirección variable
Temperatura 29°C
Humedad 14%
Presión 1011 hPa
Visibilidad: 4000 m
Polvo extendido

METAR: DRRN 182000Z VRB01KT 4000 DU NSC 29/M01 Q1011 BECMG 6000

Hora: 21:35 (20:35 UTC)

Pronóstico

El informe se hizo hace 3 horas y 35 minutos, a las 17:00 UTC
Pronóstico válido del 18 a las 18 UTC al 19 a las 24 UTC
Viento 6 kt del este-sureste
Visibilidad: 8000 m
Temporalmente
del 18 a las 18 UTC al 18 a las 20 UTC
Visibilidad: 4000 m
Polvo extendido
Temporalmente
del 19 a las 06 UTC al 19 a las 10 UTC
Visibilidad: 4000 m
Polvo extendido

TAF: DRRN 181700Z 1818/1924 12006KT 8000 NSC TEMPO 1818/1820 4000 DU TEMPO 1906/1910 4000 DU

Observaciones y pronósticos meteorológicos de más de 4000 aeropuertos (mensajes METAR y TAF).

Los puntos amarillos y rojos representan las estaciones disponibles.

Ponga el ratón en el punto deseado para ver el nombre de la estación.

Haga clic para ver las observaciones y los pronósticos meteorológicos.

Para cambiar el mapa : haga clic en los botones verdes con una cruz de color negro para hacer un zoom, en el botón verde con un guión para alejar o en las flechas verdes para mapas adyacentes.


METAR-TAF: